createdAt,value
2022-12-25T00:00:41.553Z,100.00
2022-12-25T00:03:44.632Z,100.00
2022-12-25T00:06:46.942Z,100.00
2022-12-25T00:09:49.480Z,100.00
2022-12-25T00:12:51.971Z,100.00
2022-12-25T00:15:55.468Z,100.00
2022-12-25T00:18:59.006Z,100.00
2022-12-25T00:22:01.688Z,100.00
2022-12-25T00:25:04.329Z,100.00
2022-12-25T00:28:06.816Z,100.00
2022-12-25T00:31:12.774Z,100.00
2022-12-25T00:34:15.371Z,100.00
2022-12-25T00:37:17.617Z,100.00
2022-12-25T00:40:20.395Z,100.00
2022-12-25T00:43:22.687Z,100.00
2022-12-25T00:46:25.223Z,100.00
2022-12-25T00:49:27.682Z,100.00
2022-12-25T00:52:30.182Z,100.00
2022-12-25T00:55:32.505Z,100.00
2022-12-25T00:58:35.830Z,100.00
2022-12-25T01:01:39.118Z,100.00
2022-12-25T01:04:41.996Z,100.00
2022-12-25T01:07:44.192Z,100.00
2022-12-25T01:10:54.282Z,100.00
2022-12-25T01:13:56.681Z,100.00
2022-12-25T01:16:59.222Z,100.00
2022-12-25T01:20:01.877Z,100.00
2022-12-25T01:23:04.402Z,100.00
2022-12-25T01:26:08.810Z,100.00
2022-12-25T01:29:11.354Z,100.00
2022-12-25T01:32:13.656Z,100.00
2022-12-25T01:35:16.394Z,100.00
2022-12-25T01:38:18.657Z,100.00
2022-12-25T01:41:24.081Z,100.00
2022-12-25T01:44:35.347Z,100.00
2022-12-25T01:47:38.056Z,100.00
2022-12-25T01:50:45.948Z,100.00
2022-12-25T01:53:49.190Z,100.00
2022-12-25T01:56:55.242Z,100.00
2022-12-25T02:00:00.400Z,100.00
2022-12-25T02:03:03.791Z,100.00
2022-12-25T02:06:07.502Z,100.00
2022-12-25T02:09:10.040Z,100.00
2022-12-25T02:12:30.802Z,100.00
2022-12-25T02:15:53.056Z,100.00
2022-12-25T02:19:38.442Z,100.00
2022-12-25T02:23:17.900Z,100.00
2022-12-25T02:26:46.239Z,100.00
2022-12-25T02:30:08.155Z,100.00
2022-12-25T02:33:54.921Z,100.00
2022-12-25T02:37:09.195Z,100.00
2022-12-25T02:40:30.727Z,100.00
2022-12-25T02:44:03.123Z,100.00
2022-12-25T02:47:27.130Z,100.00
2022-12-25T02:50:48.048Z,100.00
2022-12-25T02:54:13.871Z,100.00
2022-12-25T02:57:36.647Z,100.00
2022-12-25T03:01:06.723Z,100.00
2022-12-25T03:04:32.681Z,100.00
2022-12-25T03:07:39.807Z,100.00
2022-12-25T03:11:04.959Z,100.00
2022-12-25T03:14:28.109Z,100.00
2022-12-25T03:17:32.323Z,100.00
2022-12-25T03:20:53.563Z,100.00
2022-12-25T03:24:21.631Z,100.00
2022-12-25T03:27:25.346Z,100.00
2022-12-25T03:31:00.743Z,100.00
2022-12-25T03:34:54.832Z,100.00
2022-12-25T03:38:31.292Z,100.00
2022-12-25T03:42:02.402Z,100.00
2022-12-25T03:45:45.000Z,100.00
2022-12-25T03:49:10.463Z,100.00
2022-12-25T03:52:34.309Z,100.00
2022-12-25T03:55:55.610Z,100.00
2022-12-25T03:59:25.068Z,100.00
2022-12-25T04:02:46.081Z,100.00
2022-12-25T04:06:07.233Z,100.00
2022-12-25T04:09:28.008Z,100.00
2022-12-25T04:12:48.913Z,100.00
2022-12-25T04:16:11.206Z,100.00
2022-12-25T04:19:32.075Z,100.00
2022-12-25T04:23:06.523Z,100.00
2022-12-25T04:26:27.552Z,100.00
2022-12-25T04:29:48.253Z,100.00
2022-12-25T04:33:09.161Z,100.00
2022-12-25T04:36:14.157Z,100.00
2022-12-25T04:39:16.950Z,100.00
2022-12-25T04:42:19.183Z,100.00
2022-12-25T04:45:22.592Z,100.00
2022-12-25T04:48:26.414Z,100.00
2022-12-25T04:51:28.951Z,100.00
2022-12-25T04:54:31.156Z,100.00
2022-12-25T04:57:34.384Z,100.00
2022-12-25T05:00:37.390Z,100.00
2022-12-25T05:03:40.726Z,100.00
2022-12-25T05:06:42.993Z,100.00
2022-12-25T05:09:45.458Z,100.00
2022-12-25T05:12:47.604Z,100.00
2022-12-25T05:15:50.222Z,100.00
2022-12-25T05:18:52.812Z,100.00
2022-12-25T05:21:55.465Z,100.00
2022-12-25T05:24:57.764Z,100.00
2022-12-25T05:28:00.299Z,100.00
2022-12-25T05:31:03.168Z,100.00
2022-12-25T05:34:05.873Z,100.00
2022-12-25T05:37:08.020Z,100.00
2022-12-25T05:40:11.065Z,100.00
2022-12-25T05:43:13.335Z,100.00
2022-12-25T05:46:16.040Z,100.00
2022-12-25T05:49:18.345Z,100.00
2022-12-25T05:52:20.855Z,100.00
2022-12-25T05:55:23.409Z,100.00
2022-12-25T05:58:26.078Z,100.00
2022-12-25T06:01:29.032Z,100.00
2022-12-25T06:04:31.613Z,100.00
2022-12-25T06:07:33.856Z,100.00
2022-12-25T06:10:36.383Z,100.00
2022-12-25T06:13:38.591Z,100.00
2022-12-25T06:16:41.773Z,100.00
2022-12-25T06:19:44.192Z,100.00
2022-12-25T06:22:46.879Z,100.00
2022-12-25T06:25:49.253Z,100.00
2022-12-25T06:28:52.778Z,100.00
2022-12-25T06:31:57.313Z,100.00
2022-12-25T06:35:02.268Z,100.00
2022-12-25T06:38:04.411Z,100.00
2022-12-25T06:41:10.662Z,100.00
2022-12-25T06:44:13.677Z,100.00
2022-12-25T06:47:16.147Z,100.00
2022-12-25T06:50:18.480Z,100.00
2022-12-25T06:53:21.020Z,100.00
2022-12-25T06:56:26.911Z,100.00
2022-12-25T06:59:29.738Z,100.00
2022-12-25T07:02:33.489Z,100.00
2022-12-25T07:05:36.099Z,100.00
2022-12-25T07:08:38.659Z,100.00
2022-12-25T07:11:42.279Z,100.00
2022-12-25T07:14:45.637Z,100.00
2022-12-25T07:17:48.036Z,100.00
2022-12-25T07:20:50.123Z,100.00
2022-12-25T07:23:52.719Z,100.00
2022-12-25T07:26:54.929Z,100.00
2022-12-25T07:29:57.455Z,100.00
2022-12-25T07:32:59.688Z,100.00
2022-12-25T07:36:02.498Z,100.00
2022-12-25T07:39:05.416Z,100.00
2022-12-25T07:42:07.914Z,100.00
2022-12-25T07:45:10.785Z,100.00
2022-12-25T07:48:16.690Z,100.00
2022-12-25T07:51:19.465Z,100.00
2022-12-25T07:54:22.041Z,100.00
2022-12-25T07:57:24.307Z,100.00
2022-12-25T08:00:29.833Z,100.00
2022-12-25T08:03:33.880Z,100.00
2022-12-25T08:06:36.300Z,100.00
2022-12-25T08:09:38.782Z,100.00
2022-12-25T08:12:40.995Z,100.00
2022-12-25T08:15:43.552Z,100.00
2022-12-25T08:18:45.870Z,100.00
2022-12-25T08:21:48.356Z,100.00
2022-12-25T08:24:50.509Z,100.00
2022-12-25T08:27:53.156Z,100.00
2022-12-25T08:30:55.426Z,100.00
2022-12-25T08:33:58.997Z,100.00
2022-12-25T08:37:01.225Z,100.00
2022-12-25T08:40:04.157Z,100.00
2022-12-25T08:43:06.425Z,100.00
2022-12-25T08:46:09.301Z,100.00
2022-12-25T08:49:11.719Z,100.00
2022-12-25T08:52:14.184Z,100.00
2022-12-25T08:55:16.449Z,100.00
2022-12-25T08:58:18.951Z,100.00
2022-12-25T09:01:21.234Z,100.00
2022-12-25T09:04:24.147Z,100.00
2022-12-25T09:07:26.484Z,100.00
2022-12-25T09:10:29.057Z,100.00
2022-12-25T09:13:31.477Z,100.00
2022-12-25T09:16:33.969Z,100.00
2022-12-25T09:19:36.165Z,100.00
2022-12-25T09:22:38.620Z,100.00
2022-12-25T09:25:40.848Z,100.00
2022-12-25T09:28:50.260Z,100.00
2022-12-25T09:31:53.866Z,100.00
2022-12-25T09:34:56.409Z,100.00
2022-12-25T09:37:58.580Z,100.00
2022-12-25T09:41:32.055Z,94.29
2022-12-25T09:44:39.675Z,89.65
2022-12-25T09:47:44.541Z,85.66
2022-12-25T09:50:52.552Z,84.52
2022-12-25T09:54:06.570Z,84.27
2022-12-25T09:57:11.077Z,84.23
2022-12-25T10:00:19.680Z,84.56
2022-12-25T10:03:34.576Z,82.43
2022-12-25T10:06:49.916Z,82.09
2022-12-25T10:09:58.906Z,81.14
2022-12-25T10:13:35.259Z,77.78
2022-12-25T10:16:47.032Z,75.23
2022-12-25T10:19:49.207Z,70.24
2022-12-25T10:22:57.141Z,73.62
2022-12-25T10:25:59.348Z,74.43
2022-12-25T10:29:16.938Z,77.27
2022-12-25T10:32:19.207Z,78.96
2022-12-25T10:35:24.362Z,80.18
2022-12-25T10:38:26.543Z,80.42
2022-12-25T10:41:39.521Z,81.14
2022-12-25T10:44:54.414Z,81.63
2022-12-25T10:48:07.620Z,82.25
2022-12-25T10:51:10.589Z,83.43
2022-12-25T10:54:29.910Z,82.34
2022-12-25T10:57:32.366Z,82.38
2022-12-25T11:00:34.895Z,83.19
2022-12-25T11:03:44.205Z,81.70
2022-12-25T11:06:57.229Z,81.34
2022-12-25T11:10:05.686Z,81.68
2022-12-25T11:13:19.126Z,82.18
2022-12-25T11:16:40.159Z,82.94
2022-12-25T11:19:52.404Z,80.33
2022-12-25T11:22:54.887Z,77.98
2022-12-25T11:26:03.627Z,77.16
2022-12-25T11:29:36.306Z,77.61
2022-12-25T11:32:46.495Z,77.89
2022-12-25T11:35:54.927Z,76.27
2022-12-25T11:39:01.693Z,75.06
2022-12-25T11:42:20.935Z,75.31
2022-12-25T11:45:37.266Z,68.35
2022-12-25T11:48:45.206Z,63.58
2022-12-25T11:51:53.059Z,54.78
2022-12-25T11:55:01.432Z,50.20
2022-12-25T11:58:18.672Z,42.50
2022-12-25T12:01:30.303Z,41.64
2022-12-25T12:04:42.589Z,38.46
2022-12-25T12:08:00.921Z,41.25
2022-12-25T12:11:21.715Z,38.86
2022-12-25T12:14:37.661Z,40.57
2022-12-25T12:17:40.132Z,44.58
2022-12-25T12:20:42.289Z,49.06
2022-12-25T12:24:06.560Z,52.47
2022-12-25T12:27:14.833Z,57.28
2022-12-25T12:30:28.011Z,60.34
2022-12-25T12:33:54.496Z,62.26
2022-12-25T12:37:24.786Z,64.04
2022-12-25T12:40:39.237Z,65.37
2022-12-25T12:43:54.971Z,65.80
2022-12-25T12:46:57.967Z,66.66
2022-12-25T12:50:01.784Z,66.46
2022-12-25T12:53:15.892Z,63.73
2022-12-25T12:56:20.285Z,62.99
2022-12-25T12:59:23.878Z,63.28
2022-12-25T13:02:51.380Z,64.12
2022-12-25T13:06:17.112Z,65.53
2022-12-25T13:09:36.396Z,64.97
2022-12-25T13:12:38.638Z,65.75
2022-12-25T13:15:46.780Z,65.93
2022-12-25T13:18:51.830Z,66.85
2022-12-25T13:22:00.409Z,66.60
2022-12-25T13:25:05.839Z,66.57
2022-12-25T13:28:14.352Z,67.20
2022-12-25T13:31:22.574Z,66.99
2022-12-25T13:34:31.692Z,66.84
2022-12-25T13:37:35.131Z,67.90
2022-12-25T13:40:37.805Z,69.05
2022-12-25T13:43:42.303Z,70.08
2022-12-25T13:46:45.160Z,70.52
2022-12-25T13:49:49.386Z,71.30
2022-12-25T13:52:53.637Z,72.41
2022-12-25T13:55:58.560Z,73.10
2022-12-25T13:59:01.112Z,73.57
2022-12-25T14:02:04.223Z,73.52
2022-12-25T14:05:30.671Z,74.19
2022-12-25T14:08:36.028Z,74.97
2022-12-25T14:11:41.131Z,76.34
2022-12-25T14:14:43.753Z,77.19
2022-12-25T14:17:46.810Z,77.92
2022-12-25T14:20:59.935Z,78.31
2022-12-25T14:24:02.569Z,79.38
2022-12-25T14:27:18.150Z,80.64
2022-12-25T14:30:29.122Z,81.96
2022-12-25T14:33:38.258Z,83.21
2022-12-25T14:36:41.018Z,84.99
2022-12-25T14:39:47.529Z,85.77
2022-12-25T14:43:01.724Z,86.51
2022-12-25T14:46:06.641Z,86.89
2022-12-25T14:49:23.823Z,87.49
2022-12-25T14:52:43.646Z,88.10
2022-12-25T14:55:49.513Z,88.76
2022-12-25T14:58:55.044Z,89.37
2022-12-25T15:02:01.227Z,90.23
2022-12-25T15:05:03.643Z,91.06
2022-12-25T15:08:10.209Z,92.07
2022-12-25T15:11:12.436Z,93.59
2022-12-25T15:14:14.970Z,94.56
2022-12-25T15:17:26.501Z,95.56
2022-12-25T15:20:32.517Z,96.88
2022-12-25T15:23:34.696Z,97.08
2022-12-25T15:26:37.326Z,96.89
2022-12-25T15:30:08.590Z,98.17
2022-12-25T15:33:01.994Z,98.53
2022-12-25T15:36:04.622Z,98.89
2022-12-25T15:39:07.662Z,99.05
2022-12-25T15:42:15.374Z,98.59
2022-12-25T15:45:25.368Z,99.77
2022-12-25T15:48:27.577Z,100.00
2022-12-25T15:51:30.515Z,100.00
2022-12-25T15:54:33.295Z,100.00
2022-12-25T15:57:38.016Z,100.00
2022-12-25T16:00:40.198Z,100.00
2022-12-25T16:03:44.039Z,100.00
2022-12-25T16:06:46.334Z,100.00
2022-12-25T16:09:49.264Z,100.00
2022-12-25T16:12:51.606Z,100.00
2022-12-25T16:15:54.085Z,100.00
2022-12-25T16:18:56.285Z,100.00
2022-12-25T16:21:58.767Z,100.00
2022-12-25T16:25:00.999Z,100.00
2022-12-25T16:28:03.683Z,100.00
2022-12-25T16:31:06.131Z,100.00
2022-12-25T16:34:09.434Z,100.00
2022-12-25T16:37:12.431Z,100.00
2022-12-25T16:40:14.954Z,100.00
2022-12-25T16:43:23.611Z,100.00
2022-12-25T16:46:26.781Z,100.00
2022-12-25T16:49:29.038Z,100.00
2022-12-25T16:52:33.113Z,100.00
2022-12-25T16:55:37.622Z,100.00
2022-12-25T16:58:40.623Z,100.00
2022-12-25T17:01:43.468Z,100.00
2022-12-25T17:04:46.564Z,100.00
2022-12-25T17:07:48.812Z,100.00
2022-12-25T17:10:51.307Z,100.00
2022-12-25T17:13:54.027Z,100.00
2022-12-25T17:16:56.506Z,100.00
2022-12-25T17:19:58.798Z,100.00
2022-12-25T17:23:01.355Z,100.00
2022-12-25T17:26:04.730Z,100.00
2022-12-25T17:29:07.958Z,100.00
2022-12-25T17:32:11.456Z,100.00
2022-12-25T17:35:14.045Z,100.00
2022-12-25T17:38:16.233Z,100.00
2022-12-25T17:41:20.075Z,100.00
2022-12-25T17:44:22.458Z,100.00
2022-12-25T17:47:25.008Z,100.00
2022-12-25T17:50:27.199Z,100.00
2022-12-25T17:53:29.720Z,100.00
2022-12-25T17:56:32.947Z,100.00
2022-12-25T17:59:35.463Z,100.00
2022-12-25T18:02:37.985Z,100.00
2022-12-25T18:05:40.661Z,100.00
2022-12-25T18:08:43.934Z,100.00
2022-12-25T18:11:46.378Z,100.00
2022-12-25T18:14:48.413Z,100.00
2022-12-25T18:17:50.862Z,100.00
2022-12-25T18:20:53.536Z,100.00
2022-12-25T18:23:56.475Z,100.00
2022-12-25T18:26:58.664Z,100.00
2022-12-25T18:30:01.191Z,100.00
2022-12-25T18:33:03.549Z,100.00
2022-12-25T18:36:06.404Z,100.00
2022-12-25T18:39:08.624Z,100.00
2022-12-25T18:42:30.113Z,100.00
2022-12-25T18:45:32.635Z,100.00
2022-12-25T18:48:35.927Z,100.00
2022-12-25T18:51:37.957Z,100.00
2022-12-25T18:54:40.395Z,100.00
2022-12-25T18:57:42.618Z,100.00
2022-12-25T19:00:45.413Z,100.00
2022-12-25T19:03:49.362Z,100.00
2022-12-25T19:06:52.155Z,100.00
2022-12-25T19:09:54.364Z,100.00
2022-12-25T19:12:56.874Z,100.00
2022-12-25T19:15:59.456Z,100.00
2022-12-25T19:19:02.783Z,100.00
2022-12-25T19:22:05.635Z,100.00
2022-12-25T19:25:08.625Z,100.00
2022-12-25T19:28:10.795Z,100.00
2022-12-25T19:31:13.470Z,100.00
2022-12-25T19:34:16.015Z,100.00
2022-12-25T19:37:18.465Z,100.00
2022-12-25T19:40:20.675Z,100.00
2022-12-25T19:43:23.506Z,100.00
2022-12-25T19:46:28.209Z,100.00
2022-12-25T19:49:30.831Z,100.00
2022-12-25T19:52:33.121Z,100.00
2022-12-25T19:55:35.567Z,100.00
2022-12-25T19:58:37.903Z,100.00
2022-12-25T20:01:41.855Z,100.00
2022-12-25T20:04:44.342Z,100.00
2022-12-25T20:07:46.533Z,100.00
2022-12-25T20:10:49.391Z,100.00
2022-12-25T20:13:52.113Z,100.00
2022-12-25T20:16:54.678Z,100.00
2022-12-25T20:19:56.891Z,100.00
2022-12-25T20:22:59.371Z,100.00
2022-12-25T20:26:04.348Z,100.00
2022-12-25T20:29:07.429Z,100.00
2022-12-25T20:32:09.977Z,100.00
2022-12-25T20:35:16.039Z,100.00
2022-12-25T20:38:18.239Z,100.00
2022-12-25T20:41:27.387Z,100.00
2022-12-25T20:44:29.944Z,100.00
2022-12-25T20:47:32.465Z,100.00
2022-12-25T20:50:35.011Z,100.00
2022-12-25T20:53:37.916Z,100.00
2022-12-25T20:56:40.442Z,100.00
2022-12-25T20:59:43.375Z,100.00
2022-12-25T21:02:45.762Z,100.00
2022-12-25T21:05:53.889Z,100.00
2022-12-25T21:08:56.401Z,100.00
2022-12-25T21:11:59.093Z,100.00
2022-12-25T21:15:01.386Z,100.00
2022-12-25T21:18:03.896Z,100.00
2022-12-25T21:21:07.568Z,100.00
2022-12-25T21:24:10.753Z,100.00
2022-12-25T21:27:13.027Z,100.00
2022-12-25T21:30:16.095Z,100.00
2022-12-25T21:33:37.221Z,100.00
2022-12-25T21:36:41.268Z,100.00
2022-12-25T21:39:43.412Z,100.00
2022-12-25T21:42:45.831Z,100.00
2022-12-25T21:45:48.042Z,100.00
2022-12-25T21:48:50.965Z,100.00
2022-12-25T21:52:08.390Z,100.00
2022-12-25T21:55:10.999Z,100.00
2022-12-25T21:58:13.216Z,100.00
2022-12-25T22:01:16.871Z,100.00
2022-12-25T22:04:20.899Z,100.00
2022-12-25T22:07:22.973Z,100.00
2022-12-25T22:10:25.526Z,100.00
2022-12-25T22:13:47.270Z,100.00
2022-12-25T22:17:08.297Z,100.00
2022-12-25T22:20:23.900Z,100.00
2022-12-25T22:23:26.371Z,100.00
2022-12-25T22:26:28.562Z,100.00
2022-12-25T22:29:30.984Z,100.00
2022-12-25T22:32:34.638Z,100.00
2022-12-25T22:35:37.159Z,100.00
2022-12-25T22:38:41.940Z,100.00
2022-12-25T22:41:44.405Z,100.00
2022-12-25T22:44:46.585Z,100.00
2022-12-25T22:47:49.550Z,98.54
2022-12-25T22:50:51.751Z,98.48
2022-12-25T22:53:57.412Z,100.00
2022-12-25T22:57:02.507Z,100.00
2022-12-25T23:00:08.764Z,100.00
2022-12-25T23:03:11.171Z,99.60
2022-12-25T23:06:13.956Z,97.39
2022-12-25T23:09:24.210Z,95.73
2022-12-25T23:12:45.833Z,95.23
2022-12-25T23:15:48.150Z,95.76
2022-12-25T23:19:09.728Z,95.60
2022-12-25T23:22:31.406Z,95.68
2022-12-25T23:25:53.880Z,96.32
2022-12-25T23:29:14.933Z,95.28
2022-12-25T23:32:28.126Z,95.73
2022-12-25T23:35:30.363Z,95.40
2022-12-25T23:38:32.867Z,96.18
2022-12-25T23:41:35.056Z,94.66
2022-12-25T23:44:37.573Z,94.82
2022-12-25T23:47:39.910Z,95.19
2022-12-25T23:50:42.569Z,96.11
2022-12-25T23:53:45.106Z,96.77
2022-12-25T23:56:47.951Z,97.24
2022-12-25T23:59:50.136Z,97.33
